Time;durP1;ratioP1;P1;durP2;ratioP2;P2;SDS_P1;SDS_P2;PMS_P1;PMS_P2;Temp;Humidity;BMP_temperature;BMP_pressure;BME280_temperature;BME280_humidity;BME280_pressure;Samples;Min_cycle;Max_cycle;Signal;HPM_P1;HPM_P2
2022/04/19 00:01:02;;;;;;;8.38;4.78;;;;;;;2.79;75.53;98475.88;4203518;28;20478;-71
2022/04/19 00:03:03;;;;;;;9.02;5.50;;;;;;;2.74;74.43;98479.63;4204561;28;20050;-71
2022/04/19 00:05:03;;;;;;;7.07;5.18;;;;;;;2.70;73.98;98472.38;4206330;28;20063;-72
2022/04/19 00:07:04;;;;;;;7.30;4.63;;;;;;;2.63;75.00;98472.06;4201522;28;20131;-72
2022/04/19 00:09:04;;;;;;;6.80;4.78;;;;;;;2.59;75.88;98471.16;4203627;28;20044;-72
2022/04/19 00:11:05;;;;;;;8.50;5.82;;;;;;;2.56;76.42;98474.50;4207710;27;20040;-72
2022/04/19 00:13:06;;;;;;;7.50;5.28;;;;;;;2.50;76.08;98479.34;4201453;28;20048;-72
2022/04/19 00:15:07;;;;;;;7.45;4.93;;;;;;;2.43;76.57;98465.41;4203721;28;20039;-72
2022/04/19 00:17:07;;;;;;;8.95;4.65;;;;;;;2.42;76.50;98466.53;4206409;28;20492;-72
2022/04/19 00:19:08;;;;;;;9.57;4.95;;;;;;;2.35;76.48;98456.09;4202753;28;20032;-72
2022/04/19 00:21:08;;;;;;;9.20;5.35;;;;;;;2.33;76.55;98457.56;4203371;28;20317;-72
2022/04/19 00:23:12;;;;;;;9.63;5.20;;;;;;;2.31;75.64;98460.59;4207323;28;20036;-72
2022/04/19 00:25:13;;;;;;;7.57;5.30;;;;;;;2.39;73.90;98472.63;4202522;28;20121;-72
2022/04/19 00:27:13;;;;;;;6.53;4.97;;;;;;;2.42;73.89;98467.31;4202860;28;20040;-72
2022/04/19 00:29:13;;;;;;;8.25;4.72;;;;;;;2.37;74.95;98478.41;4206136;28;20387;-71
2022/04/19 00:31:14;;;;;;;8.40;6.00;;;;;;;2.28;76.20;98476.81;4210559;28;20218;-71
2022/04/19 00:33:15;;;;;;;6.70;4.78;;;;;;;2.21;75.60;98475.38;4206439;28;20052;-72
2022/04/19 00:35:15;;;;;;;10.45;6.32;;;;;;;2.23;74.61;98475.03;4202891;28;20032;-72
2022/04/19 00:37:16;;;;;;;7.97;5.25;;;;;;;2.18;74.60;98469.78;4206017;28;20113;-72
2022/04/19 00:39:17;;;;;;;8.93;5.70;;;;;;;2.07;75.65;98461.13;4204085;28;20175;-72
2022/04/19 00:41:17;;;;;;;7.05;5.30;;;;;;;1.96;76.33;98468.81;4202207;28;20467;-72
2022/04/19 00:43:18;;;;;;;10.45;5.60;;;;;;;1.89;76.90;98470.41;4203143;28;20225;-71
2022/04/19 00:45:18;;;;;;;8.90;6.32;;;;;;;1.87;76.94;98470.75;4202188;28;20044;-71
2022/04/19 00:47:19;;;;;;;10.20;5.97;;;;;;;1.92;75.75;98467.06;4207675;28;20481;-71
2022/04/19 00:49:19;;;;;;;7.85;5.05;;;;;;;1.91;75.79;98465.47;4203575;28;20772;-71
2022/04/19 00:51:20;;;;;;;7.30;5.28;;;;;;;1.91;76.50;98454.53;4203386;28;20051;-71
2022/04/19 00:53:24;;;;;;;9.50;4.88;;;;;;;1.87;76.21;98454.38;4206104;28;20135;-71
2022/04/19 00:55:24;;;;;;;8.07;5.13;;;;;;;1.83;77.95;98447.97;4205204;28;20487;-71
2022/04/19 00:57:25;;;;;;;6.22;4.78;;;;;;;1.83;77.80;98453.41;4205083;28;20063;-71
2022/04/19 00:59:26;;;;;;;6.88;4.65;;;;;;;1.84;76.96;98438.66;4205596;28;20471;-72
2022/04/19 01:01:27;;;;;;;7.13;4.20;;;;;;;1.89;75.54;98438.47;4206034;28;20044;-71
2022/04/19 01:03:27;;;;;;;7.68;4.97;;;;;;;1.88;75.29;98436.06;4206045;28;20044;-71
2022/04/19 01:05:28;;;;;;;8.45;5.15;;;;;;;1.89;75.16;98438.47;4211818;28;20051;-72
2022/04/19 01:07:29;;;;;;;9.18;4.97;;;;;;;1.89;74.60;98432.22;4206631;28;20407;-72
2022/04/19 01:09:29;;;;;;;7.65;4.82;;;;;;;1.85;75.23;98432.06;4210596;27;20051;-72
2022/04/19 01:13:49;;;;;;;6.32;4.75;;;;;;;1.68;77.58;98440.25;4205561;28;20101;-72
2022/04/19 01:15:50;;;;;;;9.02;5.75;;;;;;;1.61;78.13;98437.19;4203721;28;20036;-71
2022/04/19 01:17:51;;;;;;;9.77;5.95;;;;;;;1.47;79.28;98440.06;4206703;28;20043;-71
2022/04/19 01:19:51;;;;;;;8.00;5.28;;;;;;;1.36;78.79;98441.50;4213109;28;20326;-72
2022/04/19 01:21:54;;;;;;;8.85;5.47;;;;;;;1.29;80.26;98439.25;4212720;27;20044;-72
2022/04/19 01:23:54;;;;;;;9.05;5.75;;;;;;;1.21;80.54;98442.75;4205236;28;20423;-72
2022/04/19 01:25:57;;;;;;;9.05;5.68;;;;;;;1.10;81.42;98439.53;4210793;28;20135;-72
2022/04/19 01:27:57;;;;;;;10.05;5.32;;;;;;;1.07;81.23;98433.91;4204493;28;20534;-72
2022/04/19 01:30:01;;;;;;;9.10;5.75;;;;;;;1.11;79.24;98435.69;4204458;28;20690;-72
2022/04/19 01:32:04;;;;;;;10.32;5.75;;;;;;;1.14;78.76;98434.22;4205475;28;20429;-72
2022/04/19 01:34:05;;;;;;;8.85;5.30;;;;;;;1.11;78.68;98430.22;4205323;28;20122;-72
2022/04/19 01:36:09;;;;;;;9.70;6.30;;;;;;;1.06;79.00;98432.28;4205656;28;20071;-72
2022/04/19 01:38:09;;;;;;;13.38;7.47;;;;;;;0.96;80.01;98421.69;4204323;28;20695;-72
2022/04/19 01:40:17;;;;;;;13.73;8.68;;;;;;;0.95;80.46;98436.44;4208234;27;20035;-72
2022/04/19 01:42:17;;;;;;;12.02;7.53;;;;;;;1.00;78.31;98426.22;4206727;28;20125;-71
2022/04/19 01:44:17;;;;;;;9.15;6.35;;;;;;;1.08;78.25;98427.34;4205055;28;20039;-72
2022/04/19 01:46:18;;;;;;;11.10;6.47;;;;;;;1.19;77.30;98433.31;4206466;28;20024;-72
2022/04/19 01:48:18;;;;;;;7.95;5.30;;;;;;;1.19;77.59;98430.56;4204359;28;20110;-72
2022/04/19 01:50:21;;;;;;;10.02;6.22;;;;;;;1.18;77.75;98437.16;4204457;28;20024;-71
2022/04/19 01:52:21;;;;;;;9.90;6.28;;;;;;;1.10;77.72;98423.19;4210944;28;20136;-71
2022/04/19 01:54:21;;;;;;;10.70;6.68;;;;;;;1.09;78.11;98432.47;4204964;28;20044;-71
2022/04/19 01:56:22;;;;;;;12.38;7.63;;;;;;;1.03;77.95;98431.00;4205869;28;20635;-72
2022/04/19 01:58:22;;;;;;;12.27;7.63;;;;;;;1.05;77.61;98430.69;4209927;28;20443;-71
2022/04/19 02:00:29;;;;;;;11.15;6.45;;;;;;;1.09;77.74;98426.22;4211687;27;20395;-71
2022/04/19 02:02:30;;;;;;;10.50;7.30;;;;;;;1.14;76.49;98420.59;4204002;28;20502;-72
2022/04/19 02:04:30;;;;;;;14.00;7.38;;;;;;;1.15;77.14;98427.66;4203604;28;20071;-72
2022/04/19 02:06:30;;;;;;;11.18;6.68;;;;;;;1.10;78.10;98425.09;4206703;27;20392;-72
2022/04/19 02:08:31;;;;;;;8.48;4.90;;;;;;;1.06;78.81;98421.38;4210557;28;20036;-72
2022/04/19 02:10:31;;;;;;;8.80;5.53;;;;;;;1.02;77.86;98426.69;4206174;28;20682;-71
2022/04/19 02:12:31;;;;;;;8.30;5.07;;;;;;;1.03;77.96;98424.75;4205306;28;20085;-72
2022/04/19 02:14:31;;;;;;;8.07;4.80;;;;;;;0.98;77.54;98420.25;4204873;28;20430;-72
2022/04/19 02:16:32;;;;;;;8.93;4.95;;;;;;;0.99;76.50;98419.13;4204227;28;20594;-72
2022/04/19 02:18:32;;;;;;;9.73;5.05;;;;;;;0.98;77.04;98417.53;4204452;28;20078;-71
2022/04/19 02:20:33;;;;;;;7.60;4.82;;;;;;;0.90;77.77;98412.84;4204851;28;20040;-71
2022/04/19 02:22:34;;;;;;;10.27;5.63;;;;;;;0.86;76.77;98414.63;4204777;28;20309;-71
2022/04/19 02:24:34;;;;;;;9.80;5.45;;;;;;;0.82;77.87;98410.91;4210637;27;20043;-71
2022/04/19 02:26:34;;;;;;;7.22;4.68;;;;;;;0.85;78.21;98410.28;4209522;28;20036;-71
2022/04/19 02:28:34;;;;;;;6.53;4.60;;;;;;;0.83;77.91;98407.88;4204413;28;20051;-71
2022/04/19 02:30:35;;;;;;;7.47;4.30;;;;;;;0.81;78.32;98407.38;4204649;28;20396;-71
2022/04/19 02:32:36;;;;;;;6.60;4.25;;;;;;;0.75;79.33;98403.22;4202869;28;20470;-71
2022/04/19 02:34:36;;;;;;;5.97;4.47;;;;;;;0.78;79.24;98407.22;4209283;28;21005;-71
2022/04/19 02:36:39;;;;;;;8.45;4.85;;;;;;;0.78;79.14;98410.75;4203599;28;20036;-71
2022/04/19 02:38:39;;;;;;;8.63;5.93;;;;;;;0.77;79.72;98409.16;4204115;28;20196;-71
2022/04/19 02:40:39;;;;;;;9.13;5.32;;;;;;;0.76;79.57;98407.53;4204592;28;20119;-71
2022/04/19 02:42:40;;;;;;;10.43;6.15;;;;;;;0.76;79.73;98404.03;4207404;28;20395;-71
2022/04/19 02:44:41;;;;;;;9.00;5.25;;;;;;;0.73;80.06;98404.63;4202552;28;20040;-71
2022/04/19 02:46:41;;;;;;;8.07;5.35;;;;;;;0.75;80.10;98405.13;4208719;28;20081;-71
2022/04/19 02:48:41;;;;;;;11.02;6.97;;;;;;;0.78;79.11;98399.06;4208240;28;20032;-71
2022/04/19 02:50:44;;;;;;;9.05;6.15;;;;;;;0.76;78.99;98398.56;4207710;28;20055;-71
2022/04/19 02:52:44;;;;;;;14.70;8.00;;;;;;;0.73;80.27;98396.47;4209524;28;20043;-71
2022/04/19 02:54:45;;;;;;;20.52;9.90;;;;;;;0.73;79.71;98404.63;4205314;28;20074;-71
2022/04/19 02:56:45;;;;;;;18.40;9.35;;;;;;;0.67;79.94;98401.25;4204201;28;20052;-71
2022/04/19 02:58:45;;;;;;;25.23;11.25;;;;;;;0.67;81.35;98409.44;4203604;28;20059;-71
2022/04/19 03:00:46;;;;;;;31.48;12.82;;;;;;;0.61;81.44;98402.50;4207944;28;20048;-71
2022/04/19 03:02:47;;;;;;;29.83;12.52;;;;;;;0.57;82.67;98398.81;4208653;28;20092;-71
2022/04/19 03:04:47;;;;;;;28.60;11.70;;;;;;;0.59;83.53;98402.03;4204149;28;20044;-70
2022/04/19 03:06:48;;;;;;;51.22;17.17;;;;;;;0.64;83.64;98403.78;4203287;28;20196;-70
2022/04/19 03:08:48;;;;;;;44.63;16.60;;;;;;;0.65;82.93;98402.69;4204152;28;20048;-70
2022/04/19 03:10:49;;;;;;;36.65;14.80;;;;;;;0.75;80.17;98405.13;4206931;27;20491;-71
2022/04/19 03:12:51;;;;;;;30.92;11.50;;;;;;;0.84;78.78;98397.78;4203485;28;20372;-71
2022/04/19 03:14:51;;;;;;;22.35;9.85;;;;;;;0.92;78.65;98402.47;4203385;28;20040;-71
2022/04/19 03:16:52;;;;;;;20.52;9.63;;;;;;;1.00;78.38;98404.41;4203435;28;20816;-71
2022/04/19 03:18:52;;;;;;;20.35;8.25;;;;;;;0.98;78.46;98406.63;4203709;28;20056;-71
2022/04/19 03:20:53;;;;;;;12.45;5.88;;;;;;;1.00;76.88;98407.13;4203753;28;20101;-71
2022/04/19 03:27:42;;;;;;;7.47;4.30;;;;;;;0.92;79.23;98398.94;4202882;28;20043;-71
2022/04/19 03:29:43;;;;;;;6.38;4.18;;;;;;;0.82;79.93;98405.47;4202550;28;20077;-71
2022/04/19 03:31:43;;;;;;;8.40;4.20;;;;;;;0.70;79.65;98392.47;4210141;28;20298;-71
2022/04/19 03:33:43;;;;;;;5.95;4.00;;;;;;;0.54;80.56;98394.00;4210275;28;20046;-71
2022/04/19 03:35:44;;;;;;;8.65;4.25;;;;;;;0.45;81.41;98393.16;4208126;28;20040;-71
2022/04/19 03:37:44;;;;;;;6.97;4.55;;;;;;;0.39;81.14;98391.69;4209488;27;20078;-71
2022/04/19 03:39:44;;;;;;;6.80;3.97;;;;;;;0.34;81.54;98394.56;4203088;28;20706;-71
2022/04/19 03:41:58;;;;;;;7.82;4.57;;;;;;;0.27;84.29;98395.81;4202681;28;20464;-71
2022/04/19 03:43:58;;;;;;;7.05;4.65;;;;;;;0.23;84.83;98392.09;4203480;28;20554;-71
2022/04/19 03:45:59;;;;;;;6.75;4.40;;;;;;;0.22;84.33;98390.47;4203100;28;20079;-71
2022/04/19 03:48:00;;;;;;;6.65;3.92;;;;;;;0.15;84.51;98387.41;4202670;28;20047;-71
2022/04/19 03:50:01;;;;;;;6.97;3.90;;;;;;;0.15;85.05;98394.75;4204754;27;20077;-71
2022/04/19 03:52:02;;;;;;;6.85;4.78;;;;;;;0.16;86.54;98393.63;4208730;28;20059;-71
2022/04/19 03:54:02;;;;;;;9.20;4.70;;;;;;;0.12;86.50;98388.03;4203174;28;20024;-71
2022/04/19 03:56:05;;;;;;;7.97;4.90;;;;;;;0.12;86.28;98389.94;4203332;28;20191;-71
2022/04/19 03:58:06;;;;;;;7.07;4.20;;;;;;;0.11;86.47;98393.78;4202997;28;20410;-71
2022/04/19 04:00:07;;;;;;;5.80;3.70;;;;;;;0.12;86.13;98389.94;4203142;28;20024;-70
2022/04/19 04:02:07;;;;;;;10.18;5.03;;;;;;;0.11;86.04;98380.97;4203021;28;20066;-70
2022/04/19 04:04:08;;;;;;;7.45;4.75;;;;;;;0.08;86.32;98384.31;4203283;28;20195;-70
2022/04/19 04:06:08;;;;;;;7.32;4.75;;;;;;;0.03;85.75;98389.91;4203070;28;20039;-70
2022/04/19 04:08:09;;;;;;;5.63;4.28;;;;;;;0.03;86.42;98389.09;4202527;28;20024;-70
2022/04/19 04:10:09;;;;;;;8.32;4.85;;;;;;;0.02;86.63;98380.13;4205097;28;20367;-70
2022/04/19 04:12:13;;;;;;;7.53;4.30;;;;;;;0.04;86.33;98380.63;4203057;28;20058;-70
2022/04/19 04:14:13;;;;;;;7.00;4.05;;;;;;;0.06;87.15;98389.25;4205672;28;20032;-70
2022/04/19 04:16:14;;;;;;;7.10;3.80;;;;;;;0.15;87.68;98386.59;4199212;28;20046;-71
2022/04/19 04:18:14;;;;;;;6.30;4.20;;;;;;;0.29;87.81;98392.75;4208163;28;20287;-71
2022/04/19 04:20:14;;;;;;;6.63;4.13;;;;;;;0.24;87.27;98395.59;4207402;27;20266;-71
2022/04/19 04:22:15;;;;;;;5.68;3.80;;;;;;;0.22;86.40;98401.38;4206175;28;20500;-71
2022/04/19 04:24:15;;;;;;;6.35;4.07;;;;;;;0.12;86.33;98403.56;4202536;28;20097;-71
2022/04/19 04:26:16;;;;;;;7.60;4.35;;;;;;;0.05;86.60;98392.31;4203003;27;20072;-71
2022/04/19 04:28:16;;;;;;;5.80;3.72;;;;;;;-0.05;86.55;98396.09;4202474;28;20051;-71
2022/04/19 04:30:16;;;;;;;6.65;3.78;;;;;;;-0.12;87.13;98396.53;4212332;27;20047;-71
2022/04/19 04:32:17;;;;;;;6.72;4.20;;;;;;;-0.18;86.77;98403.19;4207074;28;20028;-71
2022/04/19 04:34:17;;;;;;;7.05;4.22;;;;;;;-0.22;86.99;98401.41;4200145;28;21407;-71
2022/04/19 04:36:19;;;;;;;6.43;3.97;;;;;;;-0.23;87.70;98397.09;4203951;28;20676;-71
2022/04/19 04:38:19;;;;;;;7.35;4.10;;;;;;;-0.30;88.47;98389.38;4212067;28;20047;-71
2022/04/19 04:40:19;;;;;;;8.35;5.13;;;;;;;-0.28;89.10;98392.56;4203049;28;20024;-71
2022/04/19 04:42:20;;;;;;;7.28;4.97;;;;;;;-0.26;88.67;98393.06;4199009;28;20055;-71
2022/04/19 04:44:20;;;;;;;8.30;4.43;;;;;;;-0.17;89.84;98393.91;4208313;27;20127;-71
2022/04/19 04:50:59;;;;;;;7.68;4.90;;;;;;;-0.10;89.19;98407.88;4212859;28;20055;-71
2022/04/19 04:52:59;;;;;;;5.78;4.10;;;;;;;-0.11;88.94;98398.13;4205819;28;20048;-71
2022/04/19 04:54:59;;;;;;;7.18;4.72;;;;;;;-0.15;88.55;98401.78;4135351;28;20078;-71
2022/04/19 04:57:03;;;;;;;7.30;5.30;;;;;;;-0.14;87.95;98400.66;4195461;28;20559;-71
2022/04/19 04:59:04;;;;;;;8.00;4.60;;;;;;;-0.27;87.86;98402.31;4209881;28;20132;-71
2022/04/19 05:01:04;;;;;;;6.43;4.70;;;;;;;-0.31;87.76;98404.06;4206180;28;20131;-71
2022/04/19 05:03:04;;;;;;;7.03;5.35;;;;;;;-0.38;88.90;98407.22;4211717;28;20071;-71
2022/04/19 05:05:05;;;;;;;13.02;6.35;;;;;;;-0.35;89.12;98405.78;4209485;28;20136;-71
2022/04/19 05:07:06;;;;;;;6.28;5.07;;;;;;;-0.33;86.95;98400.88;4210421;28;20044;-71
2022/04/19 05:09:06;;;;;;;8.93;5.00;;;;;;;-0.21;85.78;98411.97;4211812;28;20046;-71
2022/04/19 05:11:06;;;;;;;8.52;5.95;;;;;;;-0.17;86.45;98415.66;4210974;27;20360;-70
2022/04/19 05:13:07;;;;;;;10.25;5.90;;;;;;;-0.14;86.53;98412.34;4205913;28;20085;-70
2022/04/19 05:15:07;;;;;;;9.95;5.82;;;;;;;-0.07;84.71;98418.16;4205858;28;20461;-71
2022/04/19 05:17:08;;;;;;;12.73;6.25;;;;;;;0.01;84.67;98416.63;4204828;28;20040;-71
2022/04/19 05:19:09;;;;;;;11.43;7.22;;;;;;;0.16;82.54;98415.41;4206731;28;20047;-71
2022/04/19 05:21:09;;;;;;;10.35;6.57;;;;;;;0.21;83.19;98418.81;4207328;28;20291;-71
2022/04/19 05:23:10;;;;;;;15.45;7.15;;;;;;;0.18;83.69;98407.75;4204504;28;20114;-71
2022/04/19 05:25:10;;;;;;;10.10;5.70;;;;;;;0.25;81.96;98408.13;4204581;28;20509;-72
2022/04/19 05:27:10;;;;;;;9.13;6.00;;;;;;;0.27;82.49;98406.69;4206493;27;20032;-72
2022/04/19 05:29:11;;;;;;;13.38;6.18;;;;;;;0.26;83.21;98405.09;4203777;28;20360;-71
2022/04/19 05:31:11;;;;;;;11.80;6.50;;;;;;;0.33;82.83;98401.88;4203172;28;20040;-71
2022/04/19 05:33:11;;;;;;;10.20;5.53;;;;;;;0.40;82.14;98402.25;4204629;28;20040;-72
2022/04/19 05:35:11;;;;;;;10.73;5.85;;;;;;;0.50;81.35;98402.00;4206429;28;20043;-72
2022/04/19 05:37:12;;;;;;;10.45;6.53;;;;;;;0.65;80.47;98402.69;4207182;28;20050;-71
2022/04/19 05:39:12;;;;;;;9.25;6.25;;;;;;;0.75;79.79;98394.25;4204167;28;20047;-71
2022/04/19 05:41:12;;;;;;;9.45;6.43;;;;;;;0.88;79.41;98403.41;4203315;28;20046;-71
2022/04/19 05:43:13;;;;;;;9.52;5.68;;;;;;;0.95;78.72;98407.28;4204729;28;20068;-72
2022/04/19 05:45:13;;;;;;;11.73;6.03;;;;;;;0.99;78.42;98405.50;4204993;28;20131;-71
2022/04/19 05:47:16;;;;;;;8.02;5.22;;;;;;;1.01;79.24;98397.84;4203772;28;20139;-72
2022/04/19 05:49:16;;;;;;;11.48;6.72;;;;;;;1.06;78.34;98399.59;4205067;28;20048;-71
2022/04/19 05:51:17;;;;;;;11.68;7.00;;;;;;;1.10;78.16;98393.22;4204650;28;20506;-71
2022/04/19 05:53:18;;;;;;;18.50;10.02;;;;;;;1.18;77.76;98404.44;4205202;28;20040;-71
2022/04/19 05:55:18;;;;;;;18.05;10.77;;;;;;;1.23;78.59;98399.63;4204724;28;20047;-71
2022/04/19 05:57:19;;;;;;;18.90;10.43;;;;;;;1.29;78.15;98403.00;4207988;28;20031;-71
2022/04/19 05:59:19;;;;;;;13.30;8.02;;;;;;;1.32;79.32;98394.97;4207694;27;20044;-71
2022/04/19 06:01:19;;;;;;;13.18;7.57;;;;;;;1.43;77.96;98400.16;4204980;28;20079;-71
2022/04/19 06:05:39;;;;;;;9.82;6.30;;;;;;;1.60;78.24;98408.34;4205102;28;20048;-71
2022/04/19 06:07:44;;;;;;;10.73;6.07;;;;;;;1.67;79.74;98404.00;4208465;28;20047;-71
2022/04/19 06:09:44;;;;;;;11.52;7.03;;;;;;;1.86;82.69;98400.13;4205438;28;20044;-72
2022/04/19 06:11:45;;;;;;;9.48;5.55;;;;;;;2.07;84.64;98402.97;4207375;27;20047;-71
2022/04/19 06:13:45;;;;;;;7.45;4.85;;;;;;;2.22;84.16;98397.00;4204726;28;20392;-72
2022/04/19 06:15:46;;;;;;;8.77;5.43;;;;;;;2.35;83.97;98395.22;4209148;28;20051;-71
2022/04/19 06:17:46;;;;;;;14.27;6.78;;;;;;;2.58;84.89;98391.13;4207805;28;20039;-72
2022/04/19 06:19:46;;;;;;;10.05;5.88;;;;;;;2.73;84.29;98404.25;4204417;28;20036;-72
2022/04/19 06:21:48;;;;;;;10.98;5.60;;;;;;;2.87;83.60;98405.94;4204399;28;20048;-72
2022/04/19 06:23:48;;;;;;;7.53;4.70;;;;;;;2.91;82.04;98404.97;4204624;28;20051;-71
2022/04/19 06:25:48;;;;;;;7.63;5.40;;;;;;;3.00;83.70;98408.44;4204448;28;20040;-71
2022/04/19 06:27:49;;;;;;;8.00;5.22;;;;;;;3.18;84.03;98408.34;4203689;28;20051;-71
2022/04/19 06:29:52;;;;;;;8.48;5.60;;;;;;;3.35;83.79;98409.03;4204409;28;20042;-71
2022/04/19 06:31:52;;;;;;;9.25;5.55;;;;;;;3.48;82.68;98409.13;4208186;28;20101;-71
2022/04/19 06:33:53;;;;;;;8.18;5.80;;;;;;;3.64;82.94;98405.47;4204167;28;20330;-71
2022/04/19 06:35:53;;;;;;;12.73;5.93;;;;;;;3.77;82.21;98405.50;4209992;28;20046;-71
2022/04/19 06:37:53;;;;;;;10.13;6.25;;;;;;;3.90;81.81;98401.69;4203506;28;20641;-71
2022/04/19 06:39:54;;;;;;;11.45;6.25;;;;;;;4.00;79.73;98400.47;4204570;28;20101;-71
2022/04/19 06:41:54;;;;;;;8.05;5.47;;;;;;;4.11;80.17;98407.13;4203565;28;20067;-71
2022/04/19 06:43:57;;;;;;;8.98;6.70;;;;;;;4.32;79.78;98396.94;4210224;28;20067;-71
2022/04/19 06:45:58;;;;;;;9.65;6.88;;;;;;;4.47;78.93;98396.28;4205926;28;20052;-71
2022/04/19 06:47:59;;;;;;;10.77;6.03;;;;;;;4.60;78.05;98393.56;4203908;28;20364;-72
2022/04/19 06:50:00;;;;;;;9.02;5.95;;;;;;;4.69;78.53;98397.00;4203612;28;20044;-71
2022/04/19 06:52:05;;;;;;;8.85;5.63;;;;;;;4.82;79.86;98389.59;4207856;28;20082;-71
2022/04/19 06:54:06;;;;;;;8.20;5.90;;;;;;;4.98;77.58;98387.75;4203587;28;20437;-71
2022/04/19 06:56:07;;;;;;;7.65;5.53;;;;;;;5.11;77.44;98391.28;4203757;28;20030;-72
2022/04/19 06:58:07;;;;;;;9.93;6.72;;;;;;;5.27;75.83;98392.97;4203485;28;20107;-71
2022/04/19 07:00:08;;;;;;;9.82;5.90;;;;;;;5.43;76.09;98393.06;4203819;28;20488;-71
2022/04/19 07:02:08;;;;;;;8.23;5.75;;;;;;;5.53;76.10;98389.84;4205799;28;20035;-71
2022/04/19 07:04:09;;;;;;;9.52;5.85;;;;;;;5.55;74.24;98389.53;4203731;28;20387;-72
2022/04/19 07:06:10;;;;;;;8.27;5.43;;;;;;;5.59;74.51;98393.16;4204225;28;20036;-72
2022/04/19 07:08:11;;;;;;;7.57;5.68;;;;;;;5.66;74.84;98387.09;4203030;28;20422;-72
2022/04/19 07:10:12;;;;;;;8.73;6.47;;;;;;;5.76;74.20;98392.88;4206533;28;20099;-72
2022/04/19 07:12:13;;;;;;;9.45;5.50;;;;;;;5.89;73.22;98399.13;4204441;28;20319;-72
2022/04/19 07:14:13;;;;;;;8.63;5.50;;;;;;;5.99;73.10;98397.88;4204278;28;20410;-72
2022/04/19 07:16:13;;;;;;;10.05;6.00;;;;;;;5.99;72.09;98395.91;4202938;28;20035;-72
2022/04/19 07:18:15;;;;;;;9.90;5.93;;;;;;;5.96;73.04;98393.06;4203126;28;20035;-72
2022/04/19 07:27:11;;;;;;;6.60;5.20;;;;;;;6.17;69.69;98394.47;4202921;28;20086;-72
2022/04/19 07:29:13;;;;;;;8.70;5.32;;;;;;;6.29;70.37;98395.53;4203502;28;20040;-72
2022/04/19 07:31:13;;;;;;;7.88;5.30;;;;;;;6.37;69.18;98397.31;4208728;27;20055;-72
2022/04/19 07:33:16;;;;;;;5.72;4.72;;;;;;;6.46;68.80;98385.03;4213394;27;20549;-72
2022/04/19 07:35:16;;;;;;;8.27;4.65;;;;;;;6.63;68.23;98383.91;4204196;28;20047;-71
2022/04/19 07:37:16;;;;;;;10.10;5.05;;;;;;;6.86;67.74;98389.56;4203058;28;20406;-71
2022/04/19 07:39:18;;;;;;;7.65;5.00;;;;;;;6.93;66.17;98383.44;4203337;28;20484;-71
2022/04/19 07:41:20;;;;;;;6.57;5.00;;;;;;;7.09;67.19;98381.47;4203542;28;20140;-71
2022/04/19 07:43:20;;;;;;;9.10;5.88;;;;;;;7.24;65.51;98374.34;4203389;28;20036;-71
2022/04/19 07:45:21;;;;;;;6.10;4.65;;;;;;;7.30;64.92;98375.66;4203584;28;20047;-71
2022/04/19 07:47:21;;;;;;;7.20;4.78;;;;;;;7.44;63.31;98377.91;4202145;28;20365;-72
2022/04/19 07:49:21;;;;;;;6.65;3.83;;;;;;;7.46;62.05;98379.19;4202680;28;20097;-72
2022/04/19 07:51:22;;;;;;;5.43;4.57;;;;;;;7.59;61.20;98382.59;4203686;28;20391;-72
2022/04/19 07:53:23;;;;;;;4.88;3.85;;;;;;;7.62;62.78;98381.09;4203021;28;20224;-72
2022/04/19 07:55:27;;;;;;;4.57;3.65;;;;;;;7.67;61.58;98384.34;4207897;28;20127;-72
2022/04/19 07:57:27;;;;;;;5.38;4.10;;;;;;;7.75;63.51;98386.09;4202215;28;20143;-72
2022/04/19 07:59:28;;;;;;;4.35;3.75;;;;;;;7.79;61.71;98392.47;4207826;28;20071;-72
2022/04/19 08:01:28;;;;;;;5.53;4.00;;;;;;;7.82;60.97;98391.75;4202665;28;20533;-72
2022/04/19 08:03:29;;;;;;;5.13;3.50;;;;;;;7.80;61.68;98382.25;4202939;28;20054;-72
2022/04/19 08:05:29;;;;;;;6.10;4.40;;;;;;;7.82;62.48;98377.19;4208127;27;20043;-72
2022/04/19 08:07:29;;;;;;;3.05;2.55;;;;;;;8.01;61.57;98379.91;4202488;28;20043;-72
2022/04/19 08:09:29;;;;;;;4.32;2.92;;;;;;;8.04;58.49;98378.41;4202571;28;20404;-72
2022/04/19 08:11:30;;;;;;;3.90;3.08;;;;;;;8.19;59.81;98383.03;4205245;28;20403;-72
2022/04/19 08:13:30;;;;;;;3.25;2.67;;;;;;;8.25;59.15;98381.56;4203518;27;20048;-72
2022/04/19 08:15:31;;;;;;;2.88;2.60;;;;;;;8.37;60.25;98388.94;4202982;28;20090;-72
2022/04/19 08:17:32;;;;;;;4.88;3.28;;;;;;;8.37;58.17;98386.97;4202318;28;20058;-72
2022/04/19 08:19:33;;;;;;;5.13;3.30;;;;;;;8.40;59.07;98382.66;4203319;28;20078;-72
2022/04/19 08:21:33;;;;;;;4.70;3.40;;;;;;;8.42;58.36;98386.66;4207675;27;20040;-72
2022/04/19 08:23:33;;;;;;;5.43;2.97;;;;;;;8.31;58.42;98382.88;4206309;28;20485;-72
2022/04/19 08:25:38;;;;;;;3.70;3.25;;;;;;;8.35;58.69;98386.50;4209225;28;20032;-72
2022/04/19 08:27:46;;;;;;;5.22;3.38;;;;;;;8.35;58.40;98392.03;4203641;28;20052;-72
2022/04/19 08:29:47;;;;;;;4.00;2.88;;;;;;;8.37;57.83;98381.44;4203471;28;20084;-72
2022/04/19 08:31:47;;;;;;;4.57;2.90;;;;;;;8.42;57.72;98377.56;4202898;28;20055;-72
2022/04/19 08:33:47;;;;;;;5.90;4.20;;;;;;;8.56;60.25;98385.31;4202861;28;20349;-72
2022/04/19 08:35:48;;;;;;;3.95;3.40;;;;;;;8.57;57.53;98381.41;4205866;28;20117;-72
2022/04/19 08:37:48;;;;;;;5.43;3.53;;;;;;;8.66;58.45;98382.75;4204424;27;20349;-72
2022/04/19 08:39:48;;;;;;;8.07;3.28;;;;;;;8.79;57.52;98380.59;4207488;27;20051;-72
2022/04/19 08:41:49;;;;;;;4.07;2.70;;;;;;;8.72;54.41;98378.53;4207919;28;20043;-72
2022/04/19 08:43:52;;;;;;;3.58;2.40;;;;;;;8.99;54.86;98384.88;4208062;28;20461;-72
2022/04/19 08:45:52;;;;;;;3.20;2.20;;;;;;;8.84;51.50;98382.25;4206479;27;20071;-72
2022/04/19 08:47:53;;;;;;;3.17;2.65;;;;;;;8.73;52.75;98376.56;4202503;28;20454;-72
2022/04/19 08:49:54;;;;;;;2.47;2.25;;;;;;;8.75;49.78;98381.69;4202724;28;20052;-72
2022/04/19 08:51:55;;;;;;;4.35;2.08;;;;;;;8.77;46.94;98382.13;4202766;28;20040;-72
2022/04/19 08:58:34;;;;;;;2.55;1.83;;;;;;;9.04;44.62;98382.97;4202569;28;20789;-72
2022/04/19 09:00:34;;;;;;;3.17;2.28;;;;;;;9.05;45.32;98376.28;4202443;28;20080;-72
2022/04/19 09:02:37;;;;;;;2.95;2.22;;;;;;;9.02;45.55;98383.34;4202422;28;20495;-72
2022/04/19 09:04:38;;;;;;;3.13;2.20;;;;;;;9.01;44.87;98395.53;4202152;28;20056;-72
2022/04/19 09:06:52;;;;;;;2.95;2.03;;;;;;;9.10;44.94;98387.00;4201880;28;20089;-71
2022/04/19 09:09:09;;;;;;;3.30;2.22;;;;;;;9.01;44.59;98395.53;4202949;28;20044;-71
2022/04/19 09:11:11;;;;;;;2.58;2.20;;;;;;;8.98;44.84;98391.56;4205355;27;20299;-70
2022/04/19 09:13:14;;;;;;;6.50;2.17;;;;;;;8.91;45.16;98393.41;4208837;27;20048;-70
2022/04/19 09:15:14;;;;;;;2.50;1.90;;;;;;;8.90;45.86;98394.56;4205702;28;20395;-70
2022/04/19 09:17:14;;;;;;;4.60;2.63;;;;;;;8.99;47.54;98395.13;4211470;27;20342;-71
2022/04/19 09:19:27;;;;;;;4.28;2.70;;;;;;;8.96;49.79;98406.91;4212189;28;20078;-70
2022/04/19 09:21:38;;;;;;;3.17;2.85;;;;;;;8.85;47.87;98398.44;4205712;28;20313;-70
2022/04/19 09:23:51;;;;;;;4.82;3.17;;;;;;;8.96;49.26;98396.66;4205595;28;20264;-70
2022/04/19 09:25:53;;;;;;;3.65;3.22;;;;;;;8.96;48.89;98393.09;4205597;28;20365;-70
2022/04/19 09:27:56;;;;;;;3.65;3.10;;;;;;;9.15;49.04;98406.03;4210753;27;20048;-70
2022/04/19 09:30:17;;;;;;;4.75;3.40;;;;;;;9.11;48.52;98403.22;4216451;28;20043;-70
2022/04/19 09:32:17;;;;;;;3.65;2.67;;;;;;;9.31;48.20;98403.91;4209729;28;20454;-70
2022/04/19 09:34:25;;;;;;;3.92;3.10;;;;;;;9.43;48.88;98411.16;4205326;28;20023;-71
2022/04/19 09:36:26;;;;;;;4.25;3.17;;;;;;;9.40;49.01;98404.44;4205043;28;20064;-70
2022/04/19 09:38:49;;;;;;;4.05;3.42;;;;;;;9.46;47.30;98397.44;4205156;28;20052;-70
2022/04/19 09:40:49;;;;;;;4.57;3.42;;;;;;;9.42;48.49;98393.00;4205469;28;20270;-70
2022/04/19 09:42:54;;;;;;;3.90;2.88;;;;;;;9.45;46.69;98395.06;4204857;28;20074;-70
2022/04/19 09:44:56;;;;;;;4.47;3.10;;;;;;;9.49;47.62;98393.91;4205262;28;20067;-70
2022/04/19 09:47:04;;;;;;;6.70;3.33;;;;;;;9.64;48.13;98386.63;4204797;28;20094;-70
2022/04/19 09:49:06;;;;;;;5.88;3.80;;;;;;;9.73;47.25;98389.13;4207825;28;20086;-70
2022/04/19 09:51:12;;;;;;;4.47;3.40;;;;;;;9.68;46.01;98390.25;4211763;28;20048;-70
2022/04/19 09:53:16;;;;;;;3.67;2.72;;;;;;;9.71;46.88;98381.22;4205234;28;20530;-70
2022/04/19 09:55:17;;;;;;;5.70;2.90;;;;;;;9.83;46.93;98391.22;4204994;28;20137;-70
2022/04/19 09:57:18;;;;;;;8.35;4.53;;;;;;;9.95;45.69;98381.91;4204317;28;20081;-71
2022/04/19 09:59:24;;;;;;;3.65;2.95;;;;;;;9.90;45.37;98382.22;4205026;28;20433;-71
2022/04/19 10:08:23;;;;;;;4.13;2.88;;;;;;;10.17;43.58;98385.69;4206956;28;20046;-70